sensor_id;sensor_type;location;lat;lon;timestamp;P1;durP1;ratioP1;P2;durP2;ratioP2
66139;SDS011;52945;51.908;8.364;2024-02-15T00:00:48;9.65;;;4.57;;
66139;SDS011;52945;51.908;8.364;2024-02-15T00:03:49;9.75;;;4.90;;
66139;SDS011;52945;51.908;8.364;2024-02-15T00:06:50;9.48;;;4.80;;
66139;SDS011;52945;51.908;8.364;2024-02-15T00:09:50;8.57;;;4.57;;
66139;SDS011;52945;51.908;8.364;2024-02-15T00:12:51;11.70;;;4.97;;
66139;SDS011;52945;51.908;8.364;2024-02-15T00:15:52;9.95;;;4.40;;
66139;SDS011;52945;51.908;8.364;2024-02-15T00:18:52;9.20;;;4.40;;
66139;SDS011;52945;51.908;8.364;2024-02-15T00:21:55;12.10;;;4.55;;
66139;SDS011;52945;51.908;8.364;2024-02-15T00:24:56;10.00;;;4.43;;
66139;SDS011;52945;51.908;8.364;2024-02-15T00:27:57;9.93;;;4.97;;
66139;SDS011;52945;51.908;8.364;2024-02-15T00:31:00;10.82;;;4.22;;
66139;SDS011;52945;51.908;8.364;2024-02-15T00:34:00;9.30;;;4.43;;
66139;SDS011;52945;51.908;8.364;2024-02-15T00:37:02;10.18;;;4.70;;
66139;SDS011;52945;51.908;8.364;2024-02-15T00:40:04;9.30;;;4.43;;
66139;SDS011;52945;51.908;8.364;2024-02-15T00:43:05;8.82;;;4.60;;
66139;SDS011;52945;51.908;8.364;2024-02-15T00:46:06;10.55;;;5.25;;
66139;SDS011;52945;51.908;8.364;2024-02-15T00:49:06;9.23;;;4.70;;
66139;SDS011;52945;51.908;8.364;2024-02-15T00:52:07;8.00;;;4.07;;
66139;SDS011;52945;51.908;8.364;2024-02-15T00:55:08;8.88;;;4.50;;
66139;SDS011;52945;51.908;8.364;2024-02-15T00:58:09;9.57;;;4.63;;
66139;SDS011;52945;51.908;8.364;2024-02-15T01:01:09;10.55;;;5.03;;
66139;SDS011;52945;51.908;8.364;2024-02-15T01:04:11;11.93;;;4.75;;
66139;SDS011;52945;51.908;8.364;2024-02-15T01:07:11;12.13;;;5.28;;
66139;SDS011;52945;51.908;8.364;2024-02-15T01:10:12;10.25;;;4.68;;
66139;SDS011;52945;51.908;8.364;2024-02-15T01:13:12;9.63;;;4.70;;
66139;SDS011;52945;51.908;8.364;2024-02-15T01:16:13;11.32;;;5.25;;
66139;SDS011;52945;51.908;8.364;2024-02-15T01:19:16;11.63;;;4.55;;
66139;SDS011;52945;51.908;8.364;2024-02-15T01:22:16;10.50;;;4.75;;
66139;SDS011;52945;51.908;8.364;2024-02-15T01:25:17;11.07;;;5.18;;
66139;SDS011;52945;51.908;8.364;2024-02-15T01:28:18;9.88;;;4.22;;
66139;SDS011;52945;51.908;8.364;2024-02-15T01:31:19;9.75;;;4.45;;
66139;SDS011;52945;51.908;8.364;2024-02-15T01:34:20;8.98;;;4.28;;
66139;SDS011;52945;51.908;8.364;2024-02-15T01:37:21;9.73;;;3.92;;
66139;SDS011;52945;51.908;8.364;2024-02-15T01:40:22;9.55;;;4.63;;
66139;SDS011;52945;51.908;8.364;2024-02-15T01:43:23;9.63;;;4.15;;
66139;SDS011;52945;51.908;8.364;2024-02-15T01:46:25;10.38;;;3.90;;
66139;SDS011;52945;51.908;8.364;2024-02-15T01:49:26;8.07;;;4.05;;
66139;SDS011;52945;51.908;8.364;2024-02-15T01:52:28;7.80;;;3.95;;
66139;SDS011;52945;51.908;8.364;2024-02-15T01:55:28;8.93;;;4.53;;
66139;SDS011;52945;51.908;8.364;2024-02-15T01:58:29;8.63;;;4.03;;
66139;SDS011;52945;51.908;8.364;2024-02-15T02:01:50;7.80;;;4.15;;
66139;SDS011;52945;51.908;8.364;2024-02-15T02:04:51;10.45;;;4.90;;
66139;SDS011;52945;51.908;8.364;2024-02-15T02:07:51;11.68;;;4.35;;
66139;SDS011;52945;51.908;8.364;2024-02-15T02:10:52;13.38;;;4.90;;
66139;SDS011;52945;51.908;8.364;2024-02-15T02:13:54;13.98;;;5.03;;
66139;SDS011;52945;51.908;8.364;2024-02-15T02:16:55;10.15;;;4.57;;
66139;SDS011;52945;51.908;8.364;2024-02-15T02:19:56;11.50;;;5.07;;
66139;SDS011;52945;51.908;8.364;2024-02-15T02:23:06;14.57;;;5.60;;
66139;SDS011;52945;51.908;8.364;2024-02-15T02:26:09;11.88;;;5.30;;
66139;SDS011;52945;51.908;8.364;2024-02-15T02:29:10;12.60;;;5.50;;
66139;SDS011;52945;51.908;8.364;2024-02-15T02:32:11;15.13;;;5.78;;
66139;SDS011;52945;51.908;8.364;2024-02-15T02:35:12;11.02;;;5.18;;
66139;SDS011;52945;51.908;8.364;2024-02-15T02:38:13;13.48;;;6.45;;
66139;SDS011;52945;51.908;8.364;2024-02-15T02:41:16;15.07;;;6.15;;
66139;SDS011;52945;51.908;8.364;2024-02-15T02:44:19;12.25;;;6.03;;
66139;SDS011;52945;51.908;8.364;2024-02-15T02:47:19;14.85;;;6.03;;
66139;SDS011;52945;51.908;8.364;2024-02-15T02:50:20;13.50;;;5.88;;
66139;SDS011;52945;51.908;8.364;2024-02-15T02:53:22;13.02;;;6.03;;
66139;SDS011;52945;51.908;8.364;2024-02-15T02:56:25;14.45;;;6.60;;
66139;SDS011;52945;51.908;8.364;2024-02-15T02:59:25;14.35;;;6.50;;
66139;SDS011;52945;51.908;8.364;2024-02-15T03:02:26;14.13;;;6.15;;
66139;SDS011;52945;51.908;8.364;2024-02-15T03:05:27;13.30;;;5.72;;
66139;SDS011;52945;51.908;8.364;2024-02-15T03:08:27;14.27;;;5.85;;
66139;SDS011;52945;51.908;8.364;2024-02-15T03:11:28;15.63;;;6.25;;
66139;SDS011;52945;51.908;8.364;2024-02-15T03:14:28;14.57;;;6.20;;
66139;SDS011;52945;51.908;8.364;2024-02-15T03:17:30;12.32;;;5.47;;
66139;SDS011;52945;51.908;8.364;2024-02-15T03:20:34;13.52;;;6.03;;
66139;SDS011;52945;51.908;8.364;2024-02-15T03:23:37;16.33;;;6.55;;
66139;SDS011;52945;51.908;8.364;2024-02-15T03:26:38;13.98;;;6.20;;
66139;SDS011;52945;51.908;8.364;2024-02-15T03:29:40;16.67;;;6.90;;
66139;SDS011;52945;51.908;8.364;2024-02-15T03:32:40;12.77;;;5.93;;
66139;SDS011;52945;51.908;8.364;2024-02-15T03:35:41;16.15;;;6.80;;
66139;SDS011;52945;51.908;8.364;2024-02-15T03:38:42;15.73;;;6.90;;
66139;SDS011;52945;51.908;8.364;2024-02-15T03:41:44;15.82;;;6.88;;
66139;SDS011;52945;51.908;8.364;2024-02-15T03:44:45;14.23;;;6.07;;
66139;SDS011;52945;51.908;8.364;2024-02-15T03:47:47;15.02;;;6.70;;
66139;SDS011;52945;51.908;8.364;2024-02-15T03:50:49;15.32;;;6.80;;
66139;SDS011;52945;51.908;8.364;2024-02-15T03:53:50;17.02;;;6.80;;
66139;SDS011;52945;51.908;8.364;2024-02-15T03:56:52;15.82;;;6.50;;
66139;SDS011;52945;51.908;8.364;2024-02-15T03:59:52;14.18;;;6.72;;
66139;SDS011;52945;51.908;8.364;2024-02-15T04:02:54;14.95;;;6.28;;
66139;SDS011;52945;51.908;8.364;2024-02-15T04:05:56;15.32;;;6.13;;
66139;SDS011;52945;51.908;8.364;2024-02-15T04:08:57;13.75;;;6.18;;
66139;SDS011;52945;51.908;8.364;2024-02-15T04:11:58;11.90;;;6.05;;
66139;SDS011;52945;51.908;8.364;2024-02-15T04:14:58;11.77;;;5.43;;
66139;SDS011;52945;51.908;8.364;2024-02-15T04:18:05;13.55;;;6.10;;
66139;SDS011;52945;51.908;8.364;2024-02-15T04:21:06;11.35;;;5.55;;
66139;SDS011;52945;51.908;8.364;2024-02-15T04:27:07;13.15;;;4.85;;
66139;SDS011;52945;51.908;8.364;2024-02-15T04:30:13;10.07;;;4.82;;
66139;SDS011;52945;51.908;8.364;2024-02-15T04:33:15;10.20;;;4.85;;
66139;SDS011;52945;51.908;8.364;2024-02-15T04:36:16;9.65;;;4.93;;
66139;SDS011;52945;51.908;8.364;2024-02-15T04:39:23;12.32;;;4.90;;
66139;SDS011;52945;51.908;8.364;2024-02-15T04:42:24;12.63;;;5.32;;
66139;SDS011;52945;51.908;8.364;2024-02-15T04:45:26;10.15;;;4.70;;
66139;SDS011;52945;51.908;8.364;2024-02-15T04:48:27;9.43;;;4.43;;
66139;SDS011;52945;51.908;8.364;2024-02-15T04:51:29;11.45;;;4.75;;
66139;SDS011;52945;51.908;8.364;2024-02-15T04:54:30;7.47;;;3.80;;
66139;SDS011;52945;51.908;8.364;2024-02-15T04:57:32;8.45;;;4.20;;
66139;SDS011;52945;51.908;8.364;2024-02-15T05:00:36;9.40;;;4.25;;
66139;SDS011;52945;51.908;8.364;2024-02-15T05:03:37;9.20;;;3.65;;
66139;SDS011;52945;51.908;8.364;2024-02-15T05:06:38;10.57;;;4.30;;
66139;SDS011;52945;51.908;8.364;2024-02-15T05:09:40;10.18;;;4.40;;
66139;SDS011;52945;51.908;8.364;2024-02-15T05:12:40;9.07;;;4.18;;
66139;SDS011;52945;51.908;8.364;2024-02-15T05:15:42;7.18;;;3.65;;
66139;SDS011;52945;51.908;8.364;2024-02-15T05:18:43;8.13;;;3.70;;
66139;SDS011;52945;51.908;8.364;2024-02-15T05:21:45;8.52;;;4.18;;
66139;SDS011;52945;51.908;8.364;2024-02-15T05:24:46;8.38;;;3.63;;
66139;SDS011;52945;51.908;8.364;2024-02-15T05:27:46;9.88;;;3.88;;
66139;SDS011;52945;51.908;8.364;2024-02-15T05:30:47;5.57;;;3.25;;
66139;SDS011;52945;51.908;8.364;2024-02-15T05:33:48;7.60;;;3.72;;
66139;SDS011;52945;51.908;8.364;2024-02-15T05:36:51;6.45;;;3.30;;
66139;SDS011;52945;51.908;8.364;2024-02-15T05:39:52;7.82;;;3.60;;
66139;SDS011;52945;51.908;8.364;2024-02-15T05:42:57;6.07;;;3.25;;
66139;SDS011;52945;51.908;8.364;2024-02-15T05:45:58;6.43;;;3.30;;
66139;SDS011;52945;51.908;8.364;2024-02-15T05:49:01;5.72;;;3.08;;
66139;SDS011;52945;51.908;8.364;2024-02-15T05:52:02;9.18;;;3.20;;
66139;SDS011;52945;51.908;8.364;2024-02-15T05:55:03;4.78;;;2.90;;
66139;SDS011;52945;51.908;8.364;2024-02-15T05:58:04;7.93;;;3.30;;
66139;SDS011;52945;51.908;8.364;2024-02-15T06:01:05;5.57;;;2.95;;
66139;SDS011;52945;51.908;8.364;2024-02-15T06:04:06;8.48;;;3.40;;
66139;SDS011;52945;51.908;8.364;2024-02-15T06:07:08;7.60;;;3.00;;
66139;SDS011;52945;51.908;8.364;2024-02-15T06:10:10;7.75;;;3.30;;
66139;SDS011;52945;51.908;8.364;2024-02-15T06:13:10;5.43;;;2.78;;
66139;SDS011;52945;51.908;8.364;2024-02-15T06:16:11;7.22;;;2.83;;
66139;SDS011;52945;51.908;8.364;2024-02-15T06:19:11;6.07;;;2.90;;
66139;SDS011;52945;51.908;8.364;2024-02-15T06:22:12;5.43;;;2.80;;
66139;SDS011;52945;51.908;8.364;2024-02-15T06:25:13;11.43;;;4.05;;
66139;SDS011;52945;51.908;8.364;2024-02-15T06:28:15;7.63;;;3.17;;
66139;SDS011;52945;51.908;8.364;2024-02-15T06:31:34;6.72;;;3.13;;
66139;SDS011;52945;51.908;8.364;2024-02-15T06:34:53;6.85;;;3.45;;
66139;SDS011;52945;51.908;8.364;2024-02-15T06:38:12;8.13;;;3.35;;
66139;SDS011;52945;51.908;8.364;2024-02-15T06:41:31;6.93;;;3.13;;
66139;SDS011;52945;51.908;8.364;2024-02-15T06:44:32;8.02;;;4.00;;
66139;SDS011;52945;51.908;8.364;2024-02-15T06:47:33;7.32;;;3.40;;
66139;SDS011;52945;51.908;8.364;2024-02-15T06:50:34;10.05;;;3.70;;
66139;SDS011;52945;51.908;8.364;2024-02-15T06:53:38;7.65;;;3.30;;
66139;SDS011;52945;51.908;8.364;2024-02-15T06:56:40;7.32;;;3.42;;
66139;SDS011;52945;51.908;8.364;2024-02-15T06:59:40;8.95;;;3.60;;
66139;SDS011;52945;51.908;8.364;2024-02-15T07:02:42;8.15;;;3.53;;
66139;SDS011;52945;51.908;8.364;2024-02-15T07:05:44;7.78;;;3.13;;
66139;SDS011;52945;51.908;8.364;2024-02-15T07:08:45;10.07;;;3.47;;
66139;SDS011;52945;51.908;8.364;2024-02-15T07:11:46;8.40;;;3.15;;
66139;SDS011;52945;51.908;8.364;2024-02-15T07:14:47;8.00;;;3.47;;
66139;SDS011;52945;51.908;8.364;2024-02-15T07:17:48;9.25;;;3.22;;
66139;SDS011;52945;51.908;8.364;2024-02-15T07:20:48;8.98;;;3.80;;
66139;SDS011;52945;51.908;8.364;2024-02-15T07:23:49;8.95;;;3.55;;
66139;SDS011;52945;51.908;8.364;2024-02-15T07:26:49;8.88;;;3.20;;
66139;SDS011;52945;51.908;8.364;2024-02-15T07:29:52;6.63;;;3.05;;
66139;SDS011;52945;51.908;8.364;2024-02-15T07:32:53;7.05;;;3.20;;
66139;SDS011;52945;51.908;8.364;2024-02-15T07:35:53;8.25;;;3.08;;
66139;SDS011;52945;51.908;8.364;2024-02-15T07:38:54;7.53;;;2.88;;
66139;SDS011;52945;51.908;8.364;2024-02-15T07:41:59;8.18;;;3.03;;
66139;SDS011;52945;51.908;8.364;2024-02-15T07:45:00;4.55;;;2.42;;
66139;SDS011;52945;51.908;8.364;2024-02-15T07:48:01;7.88;;;2.80;;
66139;SDS011;52945;51.908;8.364;2024-02-15T07:51:04;6.70;;;2.95;;
66139;SDS011;52945;51.908;8.364;2024-02-15T07:54:06;10.52;;;3.13;;
66139;SDS011;52945;51.908;8.364;2024-02-15T07:57:07;9.02;;;3.35;;
66139;SDS011;52945;51.908;8.364;2024-02-15T08:00:09;7.05;;;3.00;;
66139;SDS011;52945;51.908;8.364;2024-02-15T08:03:11;6.65;;;2.67;;
66139;SDS011;52945;51.908;8.364;2024-02-15T08:06:12;6.70;;;2.50;;
66139;SDS011;52945;51.908;8.364;2024-02-15T08:09:15;6.25;;;2.92;;
66139;SDS011;52945;51.908;8.364;2024-02-15T08:12:17;9.23;;;3.03;;
66139;SDS011;52945;51.908;8.364;2024-02-15T08:15:19;4.72;;;2.53;;
66139;SDS011;52945;51.908;8.364;2024-02-15T08:18:19;8.40;;;2.92;;
66139;SDS011;52945;51.908;8.364;2024-02-15T08:21:27;4.53;;;2.22;;
66139;SDS011;52945;51.908;8.364;2024-02-15T08:24:29;5.85;;;2.60;;
66139;SDS011;52945;51.908;8.364;2024-02-15T08:27:29;6.07;;;2.42;;
66139;SDS011;52945;51.908;8.364;2024-02-15T08:30:32;6.78;;;2.53;;
66139;SDS011;52945;51.908;8.364;2024-02-15T08:33:33;5.63;;;2.83;;
66139;SDS011;52945;51.908;8.364;2024-02-15T08:36:33;5.07;;;2.30;;
66139;SDS011;52945;51.908;8.364;2024-02-15T08:39:34;5.78;;;1.98;;
66139;SDS011;52945;51.908;8.364;2024-02-15T08:42:35;4.72;;;2.25;;
66139;SDS011;52945;51.908;8.364;2024-02-15T08:45:39;6.38;;;2.25;;
66139;SDS011;52945;51.908;8.364;2024-02-15T08:48:39;4.03;;;2.03;;
66139;SDS011;52945;51.908;8.364;2024-02-15T08:51:40;5.03;;;2.15;;
66139;SDS011;52945;51.908;8.364;2024-02-15T08:54:41;6.15;;;2.65;;
66139;SDS011;52945;51.908;8.364;2024-02-15T08:57:41;4.85;;;2.40;;
66139;SDS011;52945;51.908;8.364;2024-02-15T09:00:44;3.38;;;1.90;;
66139;SDS011;52945;51.908;8.364;2024-02-15T09:03:45;4.57;;;2.45;;
66139;SDS011;52945;51.908;8.364;2024-02-15T09:06:45;3.70;;;1.95;;
66139;SDS011;52945;51.908;8.364;2024-02-15T09:09:46;6.03;;;2.28;;
66139;SDS011;52945;51.908;8.364;2024-02-15T09:12:47;5.40;;;2.10;;
66139;SDS011;52945;51.908;8.364;2024-02-15T09:15:48;3.25;;;1.77;;
66139;SDS011;52945;51.908;8.364;2024-02-15T09:18:50;3.25;;;2.20;;
66139;SDS011;52945;51.908;8.364;2024-02-15T09:21:50;5.72;;;2.30;;
66139;SDS011;52945;51.908;8.364;2024-02-15T09:24:51;5.13;;;2.10;;
66139;SDS011;52945;51.908;8.364;2024-02-15T09:27:51;6.00;;;1.98;;
66139;SDS011;52945;51.908;8.364;2024-02-15T09:30:53;2.90;;;1.75;;
66139;SDS011;52945;51.908;8.364;2024-02-15T09:33:59;5.28;;;2.15;;
66139;SDS011;52945;51.908;8.364;2024-02-15T09:36:59;2.47;;;1.75;;
66139;SDS011;52945;51.908;8.364;2024-02-15T09:40:00;3.53;;;2.10;;
66139;SDS011;52945;51.908;8.364;2024-02-15T09:43:06;4.45;;;1.80;;
66139;SDS011;52945;51.908;8.364;2024-02-15T09:46:06;2.50;;;1.80;;
66139;SDS011;52945;51.908;8.364;2024-02-15T09:49:07;4.85;;;1.80;;
66139;SDS011;52945;51.908;8.364;2024-02-15T09:52:08;4.43;;;2.10;;
66139;SDS011;52945;51.908;8.364;2024-02-15T09:55:15;3.00;;;1.63;;
66139;SDS011;52945;51.908;8.364;2024-02-15T09:58:16;6.57;;;2.30;;
66139;SDS011;52945;51.908;8.364;2024-02-15T10:01:19;4.72;;;2.05;;
66139;SDS011;52945;51.908;8.364;2024-02-15T10:04:22;4.15;;;1.80;;
66139;SDS011;52945;51.908;8.364;2024-02-15T10:07:26;2.55;;;1.65;;
66139;SDS011;52945;51.908;8.364;2024-02-15T10:10:29;4.88;;;2.17;;
66139;SDS011;52945;51.908;8.364;2024-02-15T10:13:29;5.72;;;2.03;;
66139;SDS011;52945;51.908;8.364;2024-02-15T10:16:31;3.58;;;1.98;;
66139;SDS011;52945;51.908;8.364;2024-02-15T10:19:35;5.95;;;1.90;;
66139;SDS011;52945;51.908;8.364;2024-02-15T10:22:36;4.90;;;2.35;;
66139;SDS011;52945;51.908;8.364;2024-02-15T10:25:37;3.72;;;2.20;;
66139;SDS011;52945;51.908;8.364;2024-02-15T10:28:38;2.53;;;1.67;;
66139;SDS011;52945;51.908;8.364;2024-02-15T10:31:39;3.13;;;1.70;;
66139;SDS011;52945;51.908;8.364;2024-02-15T10:34:51;4.75;;;2.20;;
66139;SDS011;52945;51.908;8.364;2024-02-15T10:38:04;2.78;;;1.90;;
66139;SDS011;52945;51.908;8.364;2024-02-15T10:41:09;3.45;;;1.98;;
66139;SDS011;52945;51.908;8.364;2024-02-15T10:47:16;5.00;;;2.08;;
66139;SDS011;52945;51.908;8.364;2024-02-15T10:50:19;5.70;;;2.03;;
66139;SDS011;52945;51.908;8.364;2024-02-15T10:53:21;3.72;;;2.20;;
66139;SDS011;52945;51.908;8.364;2024-02-15T10:56:31;3.45;;;2.05;;
66139;SDS011;52945;51.908;8.364;2024-02-15T10:59:38;3.25;;;2.17;;
66139;SDS011;52945;51.908;8.364;2024-02-15T11:02:46;4.72;;;2.28;;
66139;SDS011;52945;51.908;8.364;2024-02-15T11:05:56;5.32;;;2.13;;
66139;SDS011;52945;51.908;8.364;2024-02-15T11:08:59;4.10;;;2.20;;
66139;SDS011;52945;51.908;8.364;2024-02-15T11:12:03;2.60;;;1.80;;
66139;SDS011;52945;51.908;8.364;2024-02-15T11:15:05;4.03;;;1.90;;
66139;SDS011;52945;51.908;8.364;2024-02-15T11:18:07;4.70;;;1.63;;
66139;SDS011;52945;51.908;8.364;2024-02-15T11:21:08;3.58;;;1.88;;
66139;SDS011;52945;51.908;8.364;2024-02-15T11:27:36;2.88;;;1.98;;
66139;SDS011;52945;51.908;8.364;2024-02-15T11:30:40;3.53;;;1.85;;
66139;SDS011;52945;51.908;8.364;2024-02-15T11:33:43;3.90;;;2.00;;
66139;SDS011;52945;51.908;8.364;2024-02-15T11:36:44;3.42;;;1.90;;
66139;SDS011;52945;51.908;8.364;2024-02-15T11:39:44;7.60;;;2.10;;
66139;SDS011;52945;51.908;8.364;2024-02-15T11:42:47;3.65;;;2.25;;
66139;SDS011;52945;51.908;8.364;2024-02-15T11:45:47;4.95;;;1.88;;
66139;SDS011;52945;51.908;8.364;2024-02-15T11:48:52;5.63;;;2.25;;
66139;SDS011;52945;51.908;8.364;2024-02-15T11:51:56;3.75;;;1.92;;
66139;SDS011;52945;51.908;8.364;2024-02-15T11:55:09;3.80;;;1.52;;
66139;SDS011;52945;51.908;8.364;2024-02-15T11:58:10;2.58;;;1.73;;
66139;SDS011;52945;51.908;8.364;2024-02-15T12:01:14;4.32;;;1.75;;
66139;SDS011;52945;51.908;8.364;2024-02-15T12:04:34;6.63;;;1.73;;
66139;SDS011;52945;51.908;8.364;2024-02-15T12:07:53;4.90;;;1.83;;
66139;SDS011;52945;51.908;8.364;2024-02-15T12:11:15;4.18;;;1.88;;
66139;SDS011;52945;51.908;8.364;2024-02-15T12:14:34;4.15;;;1.90;;
66139;SDS011;52945;51.908;8.364;2024-02-15T12:17:53;4.32;;;2.13;;
66139;SDS011;52945;51.908;8.364;2024-02-15T12:21:14;4.45;;;1.70;;
66139;SDS011;52945;51.908;8.364;2024-02-15T12:24:19;4.03;;;1.92;;
66139;SDS011;52945;51.908;8.364;2024-02-15T12:27:25;3.55;;;2.05;;
66139;SDS011;52945;51.908;8.364;2024-02-15T12:30:33;3.22;;;1.73;;
66139;SDS011;52945;51.908;8.364;2024-02-15T12:33:36;4.25;;;1.98;;
66139;SDS011;52945;51.908;8.364;2024-02-15T12:36:37;9.50;;;2.05;;
66139;SDS011;52945;51.908;8.364;2024-02-15T12:39:38;6.03;;;2.03;;
66139;SDS011;52945;51.908;8.364;2024-02-15T12:42:39;5.65;;;2.13;;
66139;SDS011;52945;51.908;8.364;2024-02-15T12:45:39;7.30;;;2.13;;
66139;SDS011;52945;51.908;8.364;2024-02-15T12:48:41;5.32;;;2.28;;
66139;SDS011;52945;51.908;8.364;2024-02-15T12:51:49;6.30;;;2.65;;
66139;SDS011;52945;51.908;8.364;2024-02-15T12:55:06;4.57;;;2.42;;
66139;SDS011;52945;51.908;8.364;2024-02-15T12:58:12;4.53;;;2.58;;
66139;SDS011;52945;51.908;8.364;2024-02-15T13:01:15;5.18;;;2.65;;
66139;SDS011;52945;51.908;8.364;2024-02-15T13:04:23;7.47;;;2.83;;
66139;SDS011;52945;51.908;8.364;2024-02-15T13:07:28;5.70;;;2.28;;
66139;SDS011;52945;51.908;8.364;2024-02-15T13:10:29;4.28;;;2.33;;
66139;SDS011;52945;51.908;8.364;2024-02-15T13:13:31;5.43;;;2.15;;
66139;SDS011;52945;51.908;8.364;2024-02-15T13:16:34;6.85;;;2.60;;
66139;SDS011;52945;51.908;8.364;2024-02-15T13:19:37;7.75;;;2.42;;
66139;SDS011;52945;51.908;8.364;2024-02-15T13:22:38;6.45;;;2.53;;
66139;SDS011;52945;51.908;8.364;2024-02-15T13:25:40;5.57;;;2.75;;
66139;SDS011;52945;51.908;8.364;2024-02-15T13:28:42;9.18;;;2.65;;
66139;SDS011;52945;51.908;8.364;2024-02-15T13:34:44;5.68;;;2.30;;
66139;SDS011;52945;51.908;8.364;2024-02-15T13:37:52;7.18;;;2.42;;
66139;SDS011;52945;51.908;8.364;2024-02-15T13:40:53;5.10;;;2.45;;
66139;SDS011;52945;51.908;8.364;2024-02-15T13:43:56;4.10;;;2.45;;
66139;SDS011;52945;51.908;8.364;2024-02-15T13:46:57;4.57;;;2.53;;
66139;SDS011;52945;51.908;8.364;2024-02-15T13:49:57;12.13;;;3.00;;
66139;SDS011;52945;51.908;8.364;2024-02-15T13:52:58;4.88;;;2.20;;
66139;SDS011;52945;51.908;8.364;2024-02-15T13:55:59;7.20;;;2.50;;
66139;SDS011;52945;51.908;8.364;2024-02-15T13:59:00;6.63;;;2.22;;
66139;SDS011;52945;51.908;8.364;2024-02-15T14:02:00;4.68;;;2.80;;
66139;SDS011;52945;51.908;8.364;2024-02-15T14:05:01;3.70;;;2.15;;
66139;SDS011;52945;51.908;8.364;2024-02-15T14:08:02;3.70;;;2.20;;
66139;SDS011;52945;51.908;8.364;2024-02-15T14:11:15;4.20;;;2.03;;
66139;SDS011;52945;51.908;8.364;2024-02-15T14:14:16;4.55;;;2.60;;
66139;SDS011;52945;51.908;8.364;2024-02-15T14:17:17;7.45;;;2.60;;
66139;SDS011;52945;51.908;8.364;2024-02-15T14:20:17;5.13;;;2.42;;
66139;SDS011;52945;51.908;8.364;2024-02-15T14:23:19;8.18;;;2.30;;
66139;SDS011;52945;51.908;8.364;2024-02-15T14:26:21;7.10;;;2.30;;
66139;SDS011;52945;51.908;8.364;2024-02-15T14:29:27;5.97;;;2.20;;
66139;SDS011;52945;51.908;8.364;2024-02-15T14:32:33;3.90;;;2.45;;
66139;SDS011;52945;51.908;8.364;2024-02-15T14:35:52;8.30;;;2.67;;
66139;SDS011;52945;51.908;8.364;2024-02-15T14:38:56;2.90;;;2.15;;
66139;SDS011;52945;51.908;8.364;2024-02-15T14:41:56;7.65;;;2.45;;
66139;SDS011;52945;51.908;8.364;2024-02-15T14:44:57;4.65;;;2.03;;
66139;SDS011;52945;51.908;8.364;2024-02-15T14:47:58;4.40;;;2.10;;
66139;SDS011;52945;51.908;8.364;2024-02-15T14:50:59;6.43;;;2.30;;
66139;SDS011;52945;51.908;8.364;2024-02-15T14:54:00;3.72;;;2.10;;
66139;SDS011;52945;51.908;8.364;2024-02-15T14:57:00;2.70;;;1.60;;
66139;SDS011;52945;51.908;8.364;2024-02-15T15:00:01;4.53;;;2.15;;
66139;SDS011;52945;51.908;8.364;2024-02-15T15:03:04;5.47;;;1.90;;
66139;SDS011;52945;51.908;8.364;2024-02-15T15:06:06;7.03;;;2.20;;
66139;SDS011;52945;51.908;8.364;2024-02-15T15:09:26;6.35;;;2.17;;
66139;SDS011;52945;51.908;8.364;2024-02-15T15:12:46;6.88;;;2.22;;
66139;SDS011;52945;51.908;8.364;2024-02-15T15:15:48;6.43;;;2.05;;
66139;SDS011;52945;51.908;8.364;2024-02-15T15:18:49;4.38;;;2.17;;
66139;SDS011;52945;51.908;8.364;2024-02-15T15:21:52;6.97;;;2.10;;
66139;SDS011;52945;51.908;8.364;2024-02-15T15:24:53;3.00;;;1.73;;
66139;SDS011;52945;51.908;8.364;2024-02-15T15:27:54;5.00;;;1.98;;
66139;SDS011;52945;51.908;8.364;2024-02-15T15:30:55;5.18;;;1.90;;
66139;SDS011;52945;51.908;8.364;2024-02-15T15:33:56;3.47;;;1.63;;
66139;SDS011;52945;51.908;8.364;2024-02-15T15:36:57;4.10;;;1.63;;
66139;SDS011;52945;51.908;8.364;2024-02-15T15:39:57;5.10;;;1.90;;
66139;SDS011;52945;51.908;8.364;2024-02-15T15:42:58;2.58;;;1.65;;
66139;SDS011;52945;51.908;8.364;2024-02-15T15:45:59;4.95;;;1.92;;
66139;SDS011;52945;51.908;8.364;2024-02-15T15:49:00;5.10;;;1.85;;
66139;SDS011;52945;51.908;8.364;2024-02-15T15:52:01;4.05;;;2.03;;
66139;SDS011;52945;51.908;8.364;2024-02-15T15:55:02;4.40;;;1.65;;
66139;SDS011;52945;51.908;8.364;2024-02-15T15:58:02;3.13;;;1.90;;
66139;SDS011;52945;51.908;8.364;2024-02-15T16:01:04;4.57;;;1.83;;
66139;SDS011;52945;51.908;8.364;2024-02-15T16:04:05;7.43;;;2.15;;
66139;SDS011;52945;51.908;8.364;2024-02-15T16:07:06;4.50;;;2.00;;
66139;SDS011;52945;51.908;8.364;2024-02-15T16:10:07;2.75;;;1.77;;
66139;SDS011;52945;51.908;8.364;2024-02-15T16:13:11;4.00;;;1.90;;
66139;SDS011;52945;51.908;8.364;2024-02-15T16:19:14;4.25;;;1.90;;
66139;SDS011;52945;51.908;8.364;2024-02-15T16:22:14;4.63;;;1.77;;
66139;SDS011;52945;51.908;8.364;2024-02-15T16:25:15;3.97;;;1.70;;
66139;SDS011;52945;51.908;8.364;2024-02-15T16:28:15;7.32;;;1.80;;
66139;SDS011;52945;51.908;8.364;2024-02-15T16:31:16;4.82;;;1.95;;
66139;SDS011;52945;51.908;8.364;2024-02-15T16:34:17;3.17;;;1.85;;
66139;SDS011;52945;51.908;8.364;2024-02-15T16:37:17;3.45;;;1.67;;
66139;SDS011;52945;51.908;8.364;2024-02-15T16:40:18;5.65;;;1.80;;
66139;SDS011;52945;51.908;8.364;2024-02-15T16:43:22;3.50;;;1.60;;
66139;SDS011;52945;51.908;8.364;2024-02-15T16:46:23;3.22;;;1.65;;
66139;SDS011;52945;51.908;8.364;2024-02-15T16:49:24;2.58;;;1.58;;
66139;SDS011;52945;51.908;8.364;2024-02-15T16:52:24;3.60;;;1.80;;
66139;SDS011;52945;51.908;8.364;2024-02-15T16:55:26;4.40;;;1.50;;
66139;SDS011;52945;51.908;8.364;2024-02-15T16:58:30;7.00;;;2.13;;
66139;SDS011;52945;51.908;8.364;2024-02-15T17:01:31;2.88;;;1.83;;
66139;SDS011;52945;51.908;8.364;2024-02-15T17:04:32;3.08;;;1.73;;
66139;SDS011;52945;51.908;8.364;2024-02-15T17:07:32;4.32;;;1.98;;
66139;SDS011;52945;51.908;8.364;2024-02-15T17:10:33;2.00;;;1.42;;
66139;SDS011;52945;51.908;8.364;2024-02-15T17:16:41;5.35;;;1.90;;
66139;SDS011;52945;51.908;8.364;2024-02-15T17:19:44;3.30;;;1.70;;
66139;SDS011;52945;51.908;8.364;2024-02-15T17:22:46;2.85;;;1.92;;
66139;SDS011;52945;51.908;8.364;2024-02-15T17:25:46;6.28;;;2.28;;
66139;SDS011;52945;51.908;8.364;2024-02-15T17:28:47;6.43;;;2.42;;
66139;SDS011;52945;51.908;8.364;2024-02-15T17:31:51;8.68;;;3.15;;
66139;SDS011;52945;51.908;8.364;2024-02-15T17:34:51;5.00;;;2.50;;
66139;SDS011;52945;51.908;8.364;2024-02-15T17:37:53;10.23;;;2.95;;
66139;SDS011;52945;51.908;8.364;2024-02-15T17:40:54;6.30;;;2.85;;
66139;SDS011;52945;51.908;8.364;2024-02-15T17:43:55;8.98;;;2.90;;
66139;SDS011;52945;51.908;8.364;2024-02-15T17:46:59;5.68;;;2.60;;
66139;SDS011;52945;51.908;8.364;2024-02-15T17:50:00;5.82;;;2.72;;
66139;SDS011;52945;51.908;8.364;2024-02-15T17:53:01;6.45;;;2.78;;
66139;SDS011;52945;51.908;8.364;2024-02-15T17:56:02;4.88;;;2.65;;
66139;SDS011;52945;51.908;8.364;2024-02-15T17:59:02;6.53;;;2.58;;
66139;SDS011;52945;51.908;8.364;2024-02-15T18:02:03;4.10;;;2.53;;
66139;SDS011;52945;51.908;8.364;2024-02-15T18:05:04;5.50;;;3.00;;
66139;SDS011;52945;51.908;8.364;2024-02-15T18:08:07;4.82;;;3.03;;
66139;SDS011;52945;51.908;8.364;2024-02-15T18:14:10;4.47;;;2.63;;
66139;SDS011;52945;51.908;8.364;2024-02-15T18:17:10;6.13;;;3.03;;
66139;SDS011;52945;51.908;8.364;2024-02-15T18:20:11;6.53;;;3.47;;
66139;SDS011;52945;51.908;8.364;2024-02-15T18:23:12;4.75;;;3.10;;
66139;SDS011;52945;51.908;8.364;2024-02-15T18:26:13;4.93;;;2.95;;
66139;SDS011;52945;51.908;8.364;2024-02-15T18:29:13;7.00;;;3.15;;
66139;SDS011;52945;51.908;8.364;2024-02-15T18:32:14;7.05;;;3.42;;
66139;SDS011;52945;51.908;8.364;2024-02-15T18:35:17;5.75;;;3.42;;
66139;SDS011;52945;51.908;8.364;2024-02-15T18:38:17;7.07;;;3.50;;